sensor_id;sensor_type;location;lat;lon;timestamp;pressure;altitude;pressure_sealevel;temperature;humidity
10652;BME280;5374;42.742;23.266;2022-07-29T00:00:01;95563.06;;;20.80;100.00
10652;BME280;5374;42.742;23.266;2022-07-29T00:02:49;95585.50;;;20.89;100.00
10652;BME280;5374;42.742;23.266;2022-07-29T00:05:38;95605.63;;;20.83;100.00
10652;BME280;5374;42.742;23.266;2022-07-29T00:08:25;95595.00;;;20.78;100.00
10652;BME280;5374;42.742;23.266;2022-07-29T00:11:12;95614.34;;;20.80;100.00
10652;BME280;5374;42.742;23.266;2022-07-29T00:13:59;95609.22;;;20.70;100.00
10652;BME280;5374;42.742;23.266;2022-07-29T00:16:47;95593.19;;;20.42;100.00
10652;BME280;5374;42.742;23.266;2022-07-29T00:19:35;95605.09;;;20.41;100.00
10652;BME280;5374;42.742;23.266;2022-07-29T00:22:22;95598.03;;;20.32;100.00
10652;BME280;5374;42.742;23.266;2022-07-29T00:25:10;95594.28;;;20.19;100.00
10652;BME280;5374;42.742;23.266;2022-07-29T00:27:58;95593.09;;;20.11;100.00
10652;BME280;5374;42.742;23.266;2022-07-29T00:30:45;95600.06;;;20.12;100.00
10652;BME280;5374;42.742;23.266;2022-07-29T00:33:32;95614.41;;;19.99;100.00
10652;BME280;5374;42.742;23.266;2022-07-29T00:36:21;95624.50;;;19.94;100.00
10652;BME280;5374;42.742;23.266;2022-07-29T00:39:08;95611.59;;;19.82;100.00
10652;BME280;5374;42.742;23.266;2022-07-29T00:41:55;95612.56;;;19.86;100.00
10652;BME280;5374;42.742;23.266;2022-07-29T00:44:42;95609.88;;;19.86;100.00
10652;BME280;5374;42.742;23.266;2022-07-29T00:47:29;95609.88;;;19.86;100.00
10652;BME280;5374;42.742;23.266;2022-07-29T00:50:17;95608.59;;;19.84;100.00
10652;BME280;5374;42.742;23.266;2022-07-29T00:53:07;95616.06;;;19.87;100.00
10652;BME280;5374;42.742;23.266;2022-07-29T00:55:54;95596.50;;;19.81;100.00
10652;BME280;5374;42.742;23.266;2022-07-29T00:58:42;95604.19;;;19.88;100.00
10652;BME280;5374;42.742;23.266;2022-07-29T01:01:29;95599.41;;;19.85;100.00
10652;BME280;5374;42.742;23.266;2022-07-29T01:04:16;95591.63;;;19.83;100.00
10652;BME280;5374;42.742;23.266;2022-07-29T01:07:04;95598.16;;;19.91;100.00
10652;BME280;5374;42.742;23.266;2022-07-29T01:09:53;95585.44;;;19.83;100.00
10652;BME280;5374;42.742;23.266;2022-07-29T01:12:43;95581.06;;;19.73;100.00
10652;BME280;5374;42.742;23.266;2022-07-29T01:15:33;95587.75;;;19.75;100.00
10652;BME280;5374;42.742;23.266;2022-07-29T01:18:31;95577.06;;;19.70;100.00
10652;BME280;5374;42.742;23.266;2022-07-29T01:21:37;95577.06;;;19.70;100.00
10652;BME280;5374;42.742;23.266;2022-07-29T01:24:35;95571.31;;;19.63;100.00
10652;BME280;5374;42.742;23.266;2022-07-29T01:27:41;95565.13;;;19.63;100.00
10652;BME280;5374;42.742;23.266;2022-07-29T01:30:32;95550.78;;;19.54;100.00
10652;BME280;5374;42.742;23.266;2022-07-29T01:33:23;95552.44;;;19.50;100.00
10652;BME280;5374;42.742;23.266;2022-07-29T01:36:48;95556.53;;;19.47;100.00
10652;BME280;5374;42.742;23.266;2022-07-29T01:39:37;95563.22;;;19.50;100.00
10652;BME280;5374;42.742;23.266;2022-07-29T01:42:29;95569.69;;;19.48;100.00
10652;BME280;5374;42.742;23.266;2022-07-29T01:45:21;95571.59;;;19.48;100.00
10652;BME280;5374;42.742;23.266;2022-07-29T01:48:15;95566.44;;;19.52;100.00
10652;BME280;5374;42.742;23.266;2022-07-29T01:51:07;95558.13;;;19.48;100.00
10652;BME280;5374;42.742;23.266;2022-07-29T01:54:02;95567.94;;;19.58;100.00
10652;BME280;5374;42.742;23.266;2022-07-29T01:56:53;95562.25;;;19.59;100.00
10652;BME280;5374;42.742;23.266;2022-07-29T01:59:43;95569.31;;;19.55;100.00
10652;BME280;5374;42.742;23.266;2022-07-29T02:02:32;95558.25;;;19.57;100.00
10652;BME280;5374;42.742;23.266;2022-07-29T02:05:24;95554.88;;;19.51;100.00
10652;BME280;5374;42.742;23.266;2022-07-29T02:08:15;95561.94;;;19.61;100.00
10652;BME280;5374;42.742;23.266;2022-07-29T02:11:04;95558.44;;;19.60;100.00
10652;BME280;5374;42.742;23.266;2022-07-29T02:13:52;95552.75;;;19.62;100.00
10652;BME280;5374;42.742;23.266;2022-07-29T02:16:43;95554.34;;;19.63;100.00
10652;BME280;5374;42.742;23.266;2022-07-29T02:19:32;95562.28;;;19.68;100.00
10652;BME280;5374;42.742;23.266;2022-07-29T02:22:23;95546.56;;;19.61;100.00
10652;BME280;5374;42.742;23.266;2022-07-29T02:25:12;95548.03;;;19.67;100.00
10652;BME280;5374;42.742;23.266;2022-07-29T02:28:00;95549.03;;;19.71;100.00
10652;BME280;5374;42.742;23.266;2022-07-29T02:30:50;95533.94;;;19.70;100.00
10652;BME280;5374;42.742;23.266;2022-07-29T02:33:40;95531.63;;;19.77;100.00
10652;BME280;5374;42.742;23.266;2022-07-29T02:36:29;95529.06;;;19.72;100.00
10652;BME280;5374;42.742;23.266;2022-07-29T02:39:18;95540.31;;;19.74;100.00
10652;BME280;5374;42.742;23.266;2022-07-29T02:42:08;95547.81;;;19.77;100.00
10652;BME280;5374;42.742;23.266;2022-07-29T02:44:57;95548.13;;;19.76;100.00
10652;BME280;5374;42.742;23.266;2022-07-29T02:47:47;95539.72;;;19.77;100.00
10652;BME280;5374;42.742;23.266;2022-07-29T02:50:38;95532.75;;;19.76;100.00
10652;BME280;5374;42.742;23.266;2022-07-29T02:53:33;95536.16;;;19.68;100.00
10652;BME280;5374;42.742;23.266;2022-07-29T02:56:25;95539.34;;;19.70;100.00
10652;BME280;5374;42.742;23.266;2022-07-29T02:59:16;95540.63;;;19.73;100.00
10652;BME280;5374;42.742;23.266;2022-07-29T03:02:08;95540.31;;;19.74;100.00
10652;BME280;5374;42.742;23.266;2022-07-29T03:04:57;95527.41;;;19.63;100.00
10652;BME280;5374;42.742;23.266;2022-07-29T03:07:47;95535.19;;;19.64;100.00
10652;BME280;5374;42.742;23.266;2022-07-29T03:10:37;95536.84;;;19.74;100.00
10652;BME280;5374;42.742;23.266;2022-07-29T03:13:28;95530.66;;;19.73;100.00
10652;BME280;5374;42.742;23.266;2022-07-29T03:16:18;95542.41;;;19.77;100.00
10652;BME280;5374;42.742;23.266;2022-07-29T03:19:06;95541.94;;;19.75;100.00
10652;BME280;5374;42.742;23.266;2022-07-29T03:21:56;95540.31;;;19.74;100.00
10652;BME280;5374;42.742;23.266;2022-07-29T03:24:43;95535.25;;;19.73;100.00
10652;BME280;5374;42.742;23.266;2022-07-29T03:27:30;95544.00;;;19.78;100.00
10652;BME280;5374;42.742;23.266;2022-07-29T03:30:19;95532.34;;;19.69;100.00
10652;BME280;5374;42.742;23.266;2022-07-29T03:33:06;95541.94;;;19.75;100.00
10652;BME280;5374;42.742;23.266;2022-07-29T03:35:53;95546.09;;;19.82;100.00
10652;BME280;5374;42.742;23.266;2022-07-29T03:38:42;95548.50;;;19.83;100.00
10652;BME280;5374;42.742;23.266;2022-07-29T03:41:31;95549.28;;;19.84;100.00
10652;BME280;5374;42.742;23.266;2022-07-29T03:44:21;95552.34;;;19.91;100.00
10652;BME280;5374;42.742;23.266;2022-07-29T03:47:13;95556.81;;;19.95;100.00
10652;BME280;5374;42.742;23.266;2022-07-29T03:50:05;95554.19;;;20.04;100.00
10652;BME280;5374;42.742;23.266;2022-07-29T03:52:53;95534.09;;;19.88;100.00
10652;BME280;5374;42.742;23.266;2022-07-29T03:55:42;95561.53;;;20.12;100.00
10652;BME280;5374;42.742;23.266;2022-07-29T03:58:33;95561.19;;;20.50;100.00
10652;BME280;5374;42.742;23.266;2022-07-29T04:01:22;95547.13;;;21.66;100.00
10652;BME280;5374;42.742;23.266;2022-07-29T04:04:12;95558.56;;;22.96;89.99
10652;BME280;5374;42.742;23.266;2022-07-29T04:06:59;95561.19;;;23.93;80.30
10652;BME280;5374;42.742;23.266;2022-07-29T04:09:47;95552.84;;;25.09;72.23
10652;BME280;5374;42.742;23.266;2022-07-29T04:12:34;95543.66;;;26.03;66.12
10652;BME280;5374;42.742;23.266;2022-07-29T04:15:22;95542.41;;;26.84;62.03
10652;BME280;5374;42.742;23.266;2022-07-29T04:18:09;95542.28;;;27.59;58.91
10652;BME280;5374;42.742;23.266;2022-07-29T04:20:57;95537.69;;;28.17;56.59
10652;BME280;5374;42.742;23.266;2022-07-29T04:23:46;95539.88;;;28.70;54.33
10652;BME280;5374;42.742;23.266;2022-07-29T04:26:35;95548.28;;;29.26;53.40
10652;BME280;5374;42.742;23.266;2022-07-29T04:29:22;95542.97;;;29.10;52.89
10652;BME280;5374;42.742;23.266;2022-07-29T04:32:10;95561.16;;;28.80;53.21
10652;BME280;5374;42.742;23.266;2022-07-29T04:34:57;95562.44;;;28.44;54.39
10652;BME280;5374;42.742;23.266;2022-07-29T04:37:46;95564.47;;;27.92;56.56
10652;BME280;5374;42.742;23.266;2022-07-29T04:40:34;95561.22;;;28.41;55.88
10652;BME280;5374;42.742;23.266;2022-07-29T04:43:21;95579.00;;;29.65;52.19
10652;BME280;5374;42.742;23.266;2022-07-29T04:46:08;95549.84;;;30.03;49.96
10652;BME280;5374;42.742;23.266;2022-07-29T04:48:55;95568.72;;;29.09;52.19
10652;BME280;5374;42.742;23.266;2022-07-29T04:51:42;95572.19;;;28.64;53.43
10652;BME280;5374;42.742;23.266;2022-07-29T04:54:31;95579.28;;;27.91;55.96
10652;BME280;5374;42.742;23.266;2022-07-29T04:57:19;95571.34;;;27.36;57.46
10652;BME280;5374;42.742;23.266;2022-07-29T05:00:07;95576.41;;;26.90;59.54
10652;BME280;5374;42.742;23.266;2022-07-29T05:02:55;95578.22;;;26.70;60.76
10652;BME280;5374;42.742;23.266;2022-07-29T05:05:42;95574.44;;;27.03;60.33
10652;BME280;5374;42.742;23.266;2022-07-29T05:08:29;95581.78;;;27.65;58.46
10652;BME280;5374;42.742;23.266;2022-07-29T05:11:17;95582.59;;;27.66;58.04
10652;BME280;5374;42.742;23.266;2022-07-29T05:14:05;95579.09;;;29.46;53.54
10652;BME280;5374;42.742;23.266;2022-07-29T05:16:52;95570.44;;;30.23;50.85
10652;BME280;5374;42.742;23.266;2022-07-29T05:19:42;95580.94;;;30.47;48.91
10652;BME280;5374;42.742;23.266;2022-07-29T05:22:29;95590.19;;;29.79;49.91
10652;BME280;5374;42.742;23.266;2022-07-29T05:25:16;95578.94;;;29.12;52.09
10652;BME280;5374;42.742;23.266;2022-07-29T05:28:05;95581.38;;;29.67;51.28
10652;BME280;5374;42.742;23.266;2022-07-29T05:30:53;95581.44;;;30.56;48.81
10652;BME280;5374;42.742;23.266;2022-07-29T05:33:40;95581.78;;;30.55;48.07
10652;BME280;5374;42.742;23.266;2022-07-29T05:36:27;95587.94;;;30.15;49.70
10652;BME280;5374;42.742;23.266;2022-07-29T05:39:14;95589.78;;;30.04;50.09
10652;BME280;5374;42.742;23.266;2022-07-29T05:42:01;95583.00;;;30.24;49.31
10652;BME280;5374;42.742;23.266;2022-07-29T05:44:50;95591.69;;;30.63;48.30
10652;BME280;5374;42.742;23.266;2022-07-29T05:47:38;95595.31;;;30.41;49.36
10652;BME280;5374;42.742;23.266;2022-07-29T05:50:25;95596.72;;;30.91;49.25
10652;BME280;5374;42.742;23.266;2022-07-29T05:53:12;95585.88;;;32.01;46.26
10652;BME280;5374;42.742;23.266;2022-07-29T05:56:03;95585.72;;;32.48;45.24
10652;BME280;5374;42.742;23.266;2022-07-29T05:58:51;95593.75;;;33.00;43.89
10652;BME280;5374;42.742;23.266;2022-07-29T06:01:40;95585.13;;;33.08;43.72
10652;BME280;5374;42.742;23.266;2022-07-29T06:04:27;95579.19;;;33.03;42.43
10652;BME280;5374;42.742;23.266;2022-07-29T06:07:14;95595.34;;;33.22;42.84
10652;BME280;5374;42.742;23.266;2022-07-29T06:10:02;95599.28;;;33.17;42.92
10652;BME280;5374;42.742;23.266;2022-07-29T06:12:49;95598.94;;;33.40;42.65
10652;BME280;5374;42.742;23.266;2022-07-29T06:15:37;95591.44;;;33.30;42.54
10652;BME280;5374;42.742;23.266;2022-07-29T06:18:25;95594.53;;;32.97;42.60
10652;BME280;5374;42.742;23.266;2022-07-29T06:21:12;95599.13;;;32.60;44.39
10652;BME280;5374;42.742;23.266;2022-07-29T06:23:59;95601.09;;;32.67;44.62
10652;BME280;5374;42.742;23.266;2022-07-29T06:26:46;95594.28;;;32.33;43.41
10652;BME280;5374;42.742;23.266;2022-07-29T06:29:33;95593.78;;;32.16;43.74
10652;BME280;5374;42.742;23.266;2022-07-29T06:32:21;95595.81;;;32.23;43.94
10652;BME280;5374;42.742;23.266;2022-07-29T06:35:09;95588.00;;;32.28;44.05
10652;BME280;5374;42.742;23.266;2022-07-29T06:37:57;95585.75;;;32.52;42.79
10652;BME280;5374;42.742;23.266;2022-07-29T06:40:44;95594.81;;;32.67;43.95
10652;BME280;5374;42.742;23.266;2022-07-29T06:43:47;95589.72;;;32.69;44.29
10652;BME280;5374;42.742;23.266;2022-07-29T06:46:36;95585.50;;;32.96;44.08
10652;BME280;5374;42.742;23.266;2022-07-29T06:49:23;95565.81;;;33.01;43.14
10652;BME280;5374;42.742;23.266;2022-07-29T06:52:13;95582.81;;;33.39;43.62
10652;BME280;5374;42.742;23.266;2022-07-29T06:55:00;95585.97;;;33.66;42.58
10652;BME280;5374;42.742;23.266;2022-07-29T06:57:47;95583.94;;;33.91;41.87
10652;BME280;5374;42.742;23.266;2022-07-29T07:00:34;95585.13;;;33.97;40.01
10652;BME280;5374;42.742;23.266;2022-07-29T07:03:22;95578.84;;;33.96;40.04
10652;BME280;5374;42.742;23.266;2022-07-29T07:06:10;95569.41;;;33.83;40.22
10652;BME280;5374;42.742;23.266;2022-07-29T07:08:59;95576.50;;;33.81;41.30
10652;BME280;5374;42.742;23.266;2022-07-29T07:11:46;95560.75;;;33.63;40.41
10652;BME280;5374;42.742;23.266;2022-07-29T07:14:33;95572.13;;;33.97;41.71
10652;BME280;5374;42.742;23.266;2022-07-29T07:17:20;95569.31;;;34.19;41.29
10652;BME280;5374;42.742;23.266;2022-07-29T07:20:08;95561.81;;;34.23;38.92
10652;BME280;5374;42.742;23.266;2022-07-29T07:22:55;95572.03;;;34.40;38.80
10652;BME280;5374;42.742;23.266;2022-07-29T07:25:44;95572.84;;;34.26;35.92
10652;BME280;5374;42.742;23.266;2022-07-29T07:28:31;95565.88;;;33.86;36.28
10652;BME280;5374;42.742;23.266;2022-07-29T07:31:18;95556.72;;;34.18;34.33
10652;BME280;5374;42.742;23.266;2022-07-29T07:34:06;95570.91;;;34.13;34.50
10652;BME280;5374;42.742;23.266;2022-07-29T07:36:53;95568.13;;;34.23;34.51
10652;BME280;5374;42.742;23.266;2022-07-29T07:39:40;95562.63;;;34.34;33.82
10652;BME280;5374;42.742;23.266;2022-07-29T07:42:29;95573.97;;;34.47;33.29
10652;BME280;5374;42.742;23.266;2022-07-29T07:45:16;95579.47;;;34.54;33.53
10652;BME280;5374;42.742;23.266;2022-07-29T07:48:04;95557.22;;;33.84;35.81
10652;BME280;5374;42.742;23.266;2022-07-29T07:50:51;95553.59;;;34.09;35.24
10652;BME280;5374;42.742;23.266;2022-07-29T07:53:38;95571.69;;;34.31;33.97
10652;BME280;5374;42.742;23.266;2022-07-29T07:56:26;95555.47;;;34.40;33.36
10652;BME280;5374;42.742;23.266;2022-07-29T07:59:14;95567.28;;;34.48;33.79
10652;BME280;5374;42.742;23.266;2022-07-29T08:02:02;95560.31;;;34.11;34.00
10652;BME280;5374;42.742;23.266;2022-07-29T08:04:49;95556.41;;;32.99;36.62
10652;BME280;5374;42.742;23.266;2022-07-29T08:07:36;95555.22;;;33.03;36.09
10652;BME280;5374;42.742;23.266;2022-07-29T08:10:23;95549.75;;;33.32;35.45
10652;BME280;5374;42.742;23.266;2022-07-29T08:13:26;95558.75;;;33.00;36.89
10652;BME280;5374;42.742;23.266;2022-07-29T08:16:17;95551.97;;;32.58;37.64
10652;BME280;5374;42.742;23.266;2022-07-29T08:19:05;95559.97;;;32.02;37.70
10652;BME280;5374;42.742;23.266;2022-07-29T08:21:53;95550.06;;;31.83;38.59
10652;BME280;5374;42.742;23.266;2022-07-29T08:24:40;95555.06;;;32.46;37.00
10652;BME280;5374;42.742;23.266;2022-07-29T08:27:31;95557.25;;;32.05;38.64
10652;BME280;5374;42.742;23.266;2022-07-29T08:30:19;95539.16;;;32.01;39.85
10652;BME280;5374;42.742;23.266;2022-07-29T08:33:07;95540.00;;;32.19;37.61
10652;BME280;5374;42.742;23.266;2022-07-29T08:35:55;95543.78;;;32.76;38.22
10652;BME280;5374;42.742;23.266;2022-07-29T08:38:42;95546.97;;;33.03;36.47
10652;BME280;5374;42.742;23.266;2022-07-29T08:41:29;95553.63;;;32.91;37.00
10652;BME280;5374;42.742;23.266;2022-07-29T08:44:17;95552.88;;;33.16;35.18
10652;BME280;5374;42.742;23.266;2022-07-29T08:47:04;95547.34;;;32.91;35.74
10652;BME280;5374;42.742;23.266;2022-07-29T08:49:53;95550.53;;;33.14;34.57
10652;BME280;5374;42.742;23.266;2022-07-29T08:52:40;95536.38;;;33.16;34.68
10652;BME280;5374;42.742;23.266;2022-07-29T08:55:29;95547.94;;;32.31;38.36
10652;BME280;5374;42.742;23.266;2022-07-29T08:58:17;95528.75;;;32.45;37.98
10652;BME280;5374;42.742;23.266;2022-07-29T09:01:04;95538.56;;;32.46;37.02
10652;BME280;5374;42.742;23.266;2022-07-29T09:03:54;95538.63;;;32.64;36.81
10652;BME280;5374;42.742;23.266;2022-07-29T09:06:45;95528.84;;;32.81;35.34
10652;BME280;5374;42.742;23.266;2022-07-29T09:09:33;95526.50;;;32.90;35.18
10652;BME280;5374;42.742;23.266;2022-07-29T09:12:20;95533.56;;;32.77;36.11
10652;BME280;5374;42.742;23.266;2022-07-29T09:15:08;95522.53;;;32.66;36.24
10652;BME280;5374;42.742;23.266;2022-07-29T09:17:56;95524.50;;;32.69;35.74
10652;BME280;5374;42.742;23.266;2022-07-29T09:20:51;95519.56;;;32.13;39.66
10652;BME280;5374;42.742;23.266;2022-07-29T09:24:02;95526.00;;;32.45;36.50
10652;BME280;5374;42.742;23.266;2022-07-29T09:26:50;95523.75;;;32.76;36.71
10652;BME280;5374;42.742;23.266;2022-07-29T09:29:38;95526.91;;;33.06;35.31
10652;BME280;5374;42.742;23.266;2022-07-29T09:32:26;95513.56;;;33.19;35.14
10652;BME280;5374;42.742;23.266;2022-07-29T09:35:14;95529.31;;;33.43;34.36
10652;BME280;5374;42.742;23.266;2022-07-29T09:38:10;95518.69;;;33.27;34.24
10652;BME280;5374;42.742;23.266;2022-07-29T09:41:01;95518.66;;;33.06;33.91
10652;BME280;5374;42.742;23.266;2022-07-29T09:43:54;95520.63;;;33.16;34.16
10652;BME280;5374;42.742;23.266;2022-07-29T09:46:58;95514.34;;;33.26;33.86
10652;BME280;5374;42.742;23.266;2022-07-29T09:49:53;95495.47;;;33.43;34.78
10652;BME280;5374;42.742;23.266;2022-07-29T09:52:49;95496.63;;;33.49;33.65
10652;BME280;5374;42.742;23.266;2022-07-29T09:55:46;95506.88;;;33.06;34.11
10652;BME280;5374;42.742;23.266;2022-07-29T09:58:35;95495.88;;;32.99;34.02
10652;BME280;5374;42.742;23.266;2022-07-29T10:01:27;95504.47;;;32.72;34.44
10652;BME280;5374;42.742;23.266;2022-07-29T10:04:15;95494.69;;;33.10;33.41
10652;BME280;5374;42.742;23.266;2022-07-29T10:07:02;95494.31;;;33.29;34.21
10652;BME280;5374;42.742;23.266;2022-07-29T10:09:53;95489.94;;;32.86;34.44
10652;BME280;5374;42.742;23.266;2022-07-29T10:12:49;95485.25;;;32.76;35.07
10652;BME280;5374;42.742;23.266;2022-07-29T10:15:39;95483.28;;;32.87;34.74
10652;BME280;5374;42.742;23.266;2022-07-29T10:18:29;95476.56;;;33.23;33.37
10652;BME280;5374;42.742;23.266;2022-07-29T10:21:16;95482.09;;;33.38;34.35
10652;BME280;5374;42.742;23.266;2022-07-29T10:24:05;95472.63;;;33.56;33.58
10652;BME280;5374;42.742;23.266;2022-07-29T10:26:54;95473.06;;;33.37;33.04
10652;BME280;5374;42.742;23.266;2022-07-29T10:29:41;95471.06;;;33.52;32.90
10652;BME280;5374;42.742;23.266;2022-07-29T10:32:37;95463.97;;;33.58;33.72
10652;BME280;5374;42.742;23.266;2022-07-29T10:35:53;95459.66;;;33.21;33.56
10652;BME280;5374;42.742;23.266;2022-07-29T10:38:52;95464.41;;;33.39;33.48
10652;BME280;5374;42.742;23.266;2022-07-29T10:42:07;95456.94;;;33.32;33.52
10652;BME280;5374;42.742;23.266;2022-07-29T10:44:58;95443.56;;;33.09;34.89
10652;BME280;5374;42.742;23.266;2022-07-29T10:47:47;95449.84;;;33.35;32.99
10652;BME280;5374;42.742;23.266;2022-07-29T10:50:57;95454.56;;;33.41;32.71
10652;BME280;5374;42.742;23.266;2022-07-29T10:53:47;95446.31;;;33.09;32.74
10652;BME280;5374;42.742;23.266;2022-07-29T10:56:34;95444.72;;;33.40;32.26
10652;BME280;5374;42.742;23.266;2022-07-29T10:59:25;95415.25;;;33.02;33.37
10652;BME280;5374;42.742;23.266;2022-07-29T11:02:45;95436.47;;;33.44;31.93
10652;BME280;5374;42.742;23.266;2022-07-29T11:06:02;95424.69;;;33.18;32.92
10652;BME280;5374;42.742;23.266;2022-07-29T11:09:15;95415.97;;;33.52;32.60
10652;BME280;5374;42.742;23.266;2022-07-29T11:12:03;95413.53;;;33.72;31.55
10652;BME280;5374;42.742;23.266;2022-07-29T11:14:57;95418.28;;;33.68;31.66
10652;BME280;5374;42.742;23.266;2022-07-29T11:18:04;95420.63;;;33.69;31.47
10652;BME280;5374;42.742;23.266;2022-07-29T11:20:51;95415.25;;;33.30;32.65
10652;BME280;5374;42.742;23.266;2022-07-29T11:23:41;95416.75;;;33.49;32.54
10652;BME280;5374;42.742;23.266;2022-07-29T11:26:29;95415.63;;;33.43;31.92
10652;BME280;5374;42.742;23.266;2022-07-29T11:29:19;95423.91;;;33.28;32.74
10652;BME280;5374;42.742;23.266;2022-07-29T11:32:09;95407.31;;;33.46;32.36
10652;BME280;5374;42.742;23.266;2022-07-29T11:35:17;95408.97;;;33.19;32.24
10652;BME280;5374;42.742;23.266;2022-07-29T11:38:25;95397.94;;;33.05;34.81
10652;BME280;5374;42.742;23.266;2022-07-29T11:41:26;95402.22;;;33.48;32.50
10652;BME280;5374;42.742;23.266;2022-07-29T11:44:15;95400.22;;;33.56;31.93
10652;BME280;5374;42.742;23.266;2022-07-29T11:47:02;95390.78;;;33.57;32.91
10652;BME280;5374;42.742;23.266;2022-07-29T11:49:51;95397.09;;;33.47;32.67
10652;BME280;5374;42.742;23.266;2022-07-29T11:52:39;95386.53;;;33.31;32.41
10652;BME280;5374;42.742;23.266;2022-07-29T11:55:31;95394.31;;;33.61;32.36
10652;BME280;5374;42.742;23.266;2022-07-29T11:58:22;95393.94;;;33.45;33.42
10652;BME280;5374;42.742;23.266;2022-07-29T12:01:13;95386.84;;;33.61;32.85
10652;BME280;5374;42.742;23.266;2022-07-29T12:04:04;95390.31;;;33.73;31.27
10652;BME280;5374;42.742;23.266;2022-07-29T12:06:54;95373.00;;;33.83;31.23
10652;BME280;5374;42.742;23.266;2022-07-29T12:09:49;95386.03;;;33.61;32.38
10652;BME280;5374;42.742;23.266;2022-07-29T12:12:37;95382.59;;;33.39;32.50
10652;BME280;5374;42.742;23.266;2022-07-29T12:15:26;95367.06;;;33.77;31.69
10652;BME280;5374;42.742;23.266;2022-07-29T12:18:16;95376.13;;;33.74;32.50
10652;BME280;5374;42.742;23.266;2022-07-29T12:21:04;95374.97;;;33.68;31.76
10652;BME280;5374;42.742;23.266;2022-07-29T12:23:53;95371.44;;;33.78;32.57
10652;BME280;5374;42.742;23.266;2022-07-29T12:26:49;95376.41;;;34.05;32.03
10652;BME280;5374;42.742;23.266;2022-07-29T12:29:36;95365.38;;;34.08;31.32
10652;BME280;5374;42.742;23.266;2022-07-29T12:32:31;95371.81;;;33.80;31.85
10652;BME280;5374;42.742;23.266;2022-07-29T12:35:19;95344.28;;;33.70;31.30
10652;BME280;5374;42.742;23.266;2022-07-29T12:38:09;95347.00;;;33.87;30.59
10652;BME280;5374;42.742;23.266;2022-07-29T12:40:57;95365.81;;;33.96;30.39
10652;BME280;5374;42.742;23.266;2022-07-29T12:43:52;95332.44;;;33.76;31.00
10652;BME280;5374;42.742;23.266;2022-07-29T12:46:40;95352.94;;;33.68;30.81
10652;BME280;5374;42.742;23.266;2022-07-29T12:49:28;95353.69;;;33.86;31.12
10652;BME280;5374;42.742;23.266;2022-07-29T12:52:26;95335.91;;;33.91;30.74
10652;BME280;5374;42.742;23.266;2022-07-29T12:55:14;95347.25;;;34.11;31.34
10652;BME280;5374;42.742;23.266;2022-07-29T12:58:02;95331.25;;;33.77;30.78
10652;BME280;5374;42.742;23.266;2022-07-29T13:00:59;95334.50;;;33.58;31.36
10652;BME280;5374;42.742;23.266;2022-07-29T13:03:51;95334.94;;;33.49;31.31
10652;BME280;5374;42.742;23.266;2022-07-29T13:06:41;95335.31;;;33.55;30.78
10652;BME280;5374;42.742;23.266;2022-07-29T13:09:37;95329.41;;;33.49;31.35
10652;BME280;5374;42.742;23.266;2022-07-29T13:12:24;95327.84;;;33.52;30.84
10652;BME280;5374;42.742;23.266;2022-07-29T13:15:13;95319.25;;;33.36;31.80
10652;BME280;5374;42.742;23.266;2022-07-29T13:18:00;95324.38;;;33.34;31.02
10652;BME280;5374;42.742;23.266;2022-07-29T13:20:47;95323.59;;;33.37;31.27
10652;BME280;5374;42.742;23.266;2022-07-29T13:23:36;95316.84;;;33.48;31.27
10652;BME280;5374;42.742;23.266;2022-07-29T13:26:23;95307.53;;;33.10;31.25
10652;BME280;5374;42.742;23.266;2022-07-29T13:29:11;95307.41;;;33.46;30.94
10652;BME280;5374;42.742;23.266;2022-07-29T13:31:58;95297.16;;;33.46;30.61
10652;BME280;5374;42.742;23.266;2022-07-29T13:34:45;95287.00;;;33.33;31.01
10652;BME280;5374;42.742;23.266;2022-07-29T13:37:33;95305.50;;;33.28;31.74
10652;BME280;5374;42.742;23.266;2022-07-29T13:40:22;95292.16;;;33.20;31.39
10652;BME280;5374;42.742;23.266;2022-07-29T13:43:09;95298.00;;;33.25;31.18
10652;BME280;5374;42.742;23.266;2022-07-29T13:45:56;95287.00;;;33.36;30.94
10652;BME280;5374;42.742;23.266;2022-07-29T13:48:43;95278.25;;;33.52;31.17
10652;BME280;5374;42.742;23.266;2022-07-29T13:51:30;95296.81;;;33.41;31.01
10652;BME280;5374;42.742;23.266;2022-07-29T13:54:18;95287.78;;;33.37;30.77
10652;BME280;5374;42.742;23.266;2022-07-29T13:57:07;95290.91;;;33.42;30.98
10652;BME280;5374;42.742;23.266;2022-07-29T13:59:54;95286.16;;;33.46;30.88
10652;BME280;5374;42.742;23.266;2022-07-29T14:02:41;95299.91;;;33.50;31.64
10652;BME280;5374;42.742;23.266;2022-07-29T14:05:28;95291.75;;;33.28;31.64
10652;BME280;5374;42.742;23.266;2022-07-29T14:08:16;95297.22;;;33.39;31.85
10652;BME280;5374;42.742;23.266;2022-07-29T14:11:03;95305.16;;;33.16;32.19
10652;BME280;5374;42.742;23.266;2022-07-29T14:13:51;95304.84;;;32.60;32.56
10652;BME280;5374;42.742;23.266;2022-07-29T14:16:39;95307.19;;;32.55;32.57
10652;BME280;5374;42.742;23.266;2022-07-29T14:19:26;95303.69;;;32.47;32.97
10652;BME280;5374;42.742;23.266;2022-07-29T14:22:13;95280.50;;;32.34;33.66
10652;BME280;5374;42.742;23.266;2022-07-29T14:25:00;95300.53;;;32.35;33.48
10652;BME280;5374;42.742;23.266;2022-07-29T14:27:48;95290.72;;;32.37;33.40
10652;BME280;5374;42.742;23.266;2022-07-29T14:30:36;95291.13;;;32.43;32.52
10652;BME280;5374;42.742;23.266;2022-07-29T14:33:23;95301.34;;;32.49;32.55
10652;BME280;5374;42.742;23.266;2022-07-29T14:36:11;95295.81;;;32.46;32.87
10652;BME280;5374;42.742;23.266;2022-07-29T14:38:58;95297.41;;;32.50;32.62
10652;BME280;5374;42.742;23.266;2022-07-29T14:41:45;95301.31;;;32.39;32.82
10652;BME280;5374;42.742;23.266;2022-07-29T14:44:32;95308.00;;;32.48;32.84
10652;BME280;5374;42.742;23.266;2022-07-29T14:47:21;95293.06;;;32.39;33.82
10652;BME280;5374;42.742;23.266;2022-07-29T14:50:09;95273.81;;;32.56;33.13
10652;BME280;5374;42.742;23.266;2022-07-29T14:52:56;95290.31;;;32.74;33.63
10652;BME280;5374;42.742;23.266;2022-07-29T14:55:43;95290.31;;;32.71;34.06